sensor_id;sensor_type;location;lat;lon;timestamp;temperature;humidity
66328;DHT22;53133;52.862;6.602;2023-05-24T00:02:20;9.70;99.90
66328;DHT22;53133;52.862;6.602;2023-05-24T00:04:48;9.70;99.90
66328;DHT22;53133;52.862;6.602;2023-05-24T00:07:16;9.70;99.90
66328;DHT22;53133;52.862;6.602;2023-05-24T00:09:42;9.70;99.90
66328;DHT22;53133;52.862;6.602;2023-05-24T00:12:08;9.60;99.90
66328;DHT22;53133;52.862;6.602;2023-05-24T00:14:33;9.60;99.90
66328;DHT22;53133;52.862;6.602;2023-05-24T00:16:59;9.60;99.90
66328;DHT22;53133;52.862;6.602;2023-05-24T00:19:24;9.60;99.90
66328;DHT22;53133;52.862;6.602;2023-05-24T00:21:52;9.60;99.90
66328;DHT22;53133;52.862;6.602;2023-05-24T00:24:20;9.70;99.90
66328;DHT22;53133;52.862;6.602;2023-05-24T00:26:46;9.80;99.90
66328;DHT22;53133;52.862;6.602;2023-05-24T00:29:12;9.70;99.90
66328;DHT22;53133;52.862;6.602;2023-05-24T00:31:38;9.80;99.90
66328;DHT22;53133;52.862;6.602;2023-05-24T00:34:03;9.80;99.90
66328;DHT22;53133;52.862;6.602;2023-05-24T00:36:29;9.90;99.90
66328;DHT22;53133;52.862;6.602;2023-05-24T00:38:55;9.90;99.90
66328;DHT22;53133;52.862;6.602;2023-05-24T00:41:21;9.90;99.90
66328;DHT22;53133;52.862;6.602;2023-05-24T00:43:46;9.90;99.90
66328;DHT22;53133;52.862;6.602;2023-05-24T00:46:17;10.00;99.90
66328;DHT22;53133;52.862;6.602;2023-05-24T00:48:44;10.00;99.90
66328;DHT22;53133;52.862;6.602;2023-05-24T00:51:11;10.10;99.90
66328;DHT22;53133;52.862;6.602;2023-05-24T00:53:37;10.10;99.90
66328;DHT22;53133;52.862;6.602;2023-05-24T00:56:03;10.10;99.90
66328;DHT22;53133;52.862;6.602;2023-05-24T00:58:31;10.10;99.90
66328;DHT22;53133;52.862;6.602;2023-05-24T01:01:02;10.10;99.90
66328;DHT22;53133;52.862;6.602;2023-05-24T01:03:28;10.00;99.90
66328;DHT22;53133;52.862;6.602;2023-05-24T01:05:58;10.00;99.90
66328;DHT22;53133;52.862;6.602;2023-05-24T01:11:36;10.00;99.90
66328;DHT22;53133;52.862;6.602;2023-05-24T01:16:59;9.90;99.90
66328;DHT22;53133;52.862;6.602;2023-05-24T01:27:21;9.80;99.90
66328;DHT22;53133;52.862;6.602;2023-05-24T01:29:47;9.70;99.90
66328;DHT22;53133;52.862;6.602;2023-05-24T01:32:20;9.70;99.90
66328;DHT22;53133;52.862;6.602;2023-05-24T01:34:49;9.70;99.90
66328;DHT22;53133;52.862;6.602;2023-05-24T01:37:14;9.70;99.90
66328;DHT22;53133;52.862;6.602;2023-05-24T01:39:41;9.70;99.90
66328;DHT22;53133;52.862;6.602;2023-05-24T01:48:15;9.70;99.90
66328;DHT22;53133;52.862;6.602;2023-05-24T01:50:57;9.70;99.90
66328;DHT22;53133;52.862;6.602;2023-05-24T01:53:25;9.70;99.90
66328;DHT22;53133;52.862;6.602;2023-05-24T01:55:58;9.70;99.90
66328;DHT22;53133;52.862;6.602;2023-05-24T01:58:29;9.60;99.90
66328;DHT22;53133;52.862;6.602;2023-05-24T02:00:54;9.70;99.90
66328;DHT22;53133;52.862;6.602;2023-05-24T02:03:20;9.60;99.90
66328;DHT22;53133;52.862;6.602;2023-05-24T02:05:46;9.60;99.90
66328;DHT22;53133;52.862;6.602;2023-05-24T02:08:12;9.60;99.90
66328;DHT22;53133;52.862;6.602;2023-05-24T02:10:41;9.60;99.90
66328;DHT22;53133;52.862;6.602;2023-05-24T02:13:07;9.60;99.90
66328;DHT22;53133;52.862;6.602;2023-05-24T02:15:33;9.60;99.90
66328;DHT22;53133;52.862;6.602;2023-05-24T02:18:03;9.60;99.90
66328;DHT22;53133;52.862;6.602;2023-05-24T02:20:32;9.60;99.90
66328;DHT22;53133;52.862;6.602;2023-05-24T02:23:02;9.50;99.90
66328;DHT22;53133;52.862;6.602;2023-05-24T02:25:28;9.50;99.90
66328;DHT22;53133;52.862;6.602;2023-05-24T02:27:54;9.50;99.90
66328;DHT22;53133;52.862;6.602;2023-05-24T02:30:19;9.50;99.90
66328;DHT22;53133;52.862;6.602;2023-05-24T02:32:45;9.50;99.90
66328;DHT22;53133;52.862;6.602;2023-05-24T02:35:11;9.50;99.90
66328;DHT22;53133;52.862;6.602;2023-05-24T02:37:37;9.60;99.90
66328;DHT22;53133;52.862;6.602;2023-05-24T02:40:03;9.60;99.90
66328;DHT22;53133;52.862;6.602;2023-05-24T02:42:29;9.60;99.90
66328;DHT22;53133;52.862;6.602;2023-05-24T02:44:55;9.60;99.90
66328;DHT22;53133;52.862;6.602;2023-05-24T02:47:20;9.70;99.90
66328;DHT22;53133;52.862;6.602;2023-05-24T02:49:46;9.70;99.90
66328;DHT22;53133;52.862;6.602;2023-05-24T02:52:11;9.70;99.90
66328;DHT22;53133;52.862;6.602;2023-05-24T02:54:40;9.70;99.90
66328;DHT22;53133;52.862;6.602;2023-05-24T02:57:08;9.60;99.90
66328;DHT22;53133;52.862;6.602;2023-05-24T02:59:33;9.70;99.90
66328;DHT22;53133;52.862;6.602;2023-05-24T03:01:59;9.70;99.90
66328;DHT22;53133;52.862;6.602;2023-05-24T03:04:25;9.70;99.90
66328;DHT22;53133;52.862;6.602;2023-05-24T03:06:50;9.70;99.90
66328;DHT22;53133;52.862;6.602;2023-05-24T03:09:17;9.70;99.90
66328;DHT22;53133;52.862;6.602;2023-05-24T03:11:43;9.70;99.90
66328;DHT22;53133;52.862;6.602;2023-05-24T03:14:09;9.70;99.90
66328;DHT22;53133;52.862;6.602;2023-05-24T03:16:35;9.70;99.90
66328;DHT22;53133;52.862;6.602;2023-05-24T03:19:01;9.70;99.90
66328;DHT22;53133;52.862;6.602;2023-05-24T03:21:27;9.70;99.90
66328;DHT22;53133;52.862;6.602;2023-05-24T03:23:52;9.70;99.90
66328;DHT22;53133;52.862;6.602;2023-05-24T03:26:18;9.80;99.90
66328;DHT22;53133;52.862;6.602;2023-05-24T03:28:45;9.80;99.90
66328;DHT22;53133;52.862;6.602;2023-05-24T03:31:12;9.80;99.90
66328;DHT22;53133;52.862;6.602;2023-05-24T03:33:40;9.80;99.90
66328;DHT22;53133;52.862;6.602;2023-05-24T03:36:06;9.80;99.90
66328;DHT22;53133;52.862;6.602;2023-05-24T03:38:34;9.80;99.90
66328;DHT22;53133;52.862;6.602;2023-05-24T03:41:00;9.80;99.90
66328;DHT22;53133;52.862;6.602;2023-05-24T03:43:25;9.80;99.90
66328;DHT22;53133;52.862;6.602;2023-05-24T03:45:51;9.80;99.90
66328;DHT22;53133;52.862;6.602;2023-05-24T03:48:17;9.80;99.90
66328;DHT22;53133;52.862;6.602;2023-05-24T03:50:45;9.80;99.90
66328;DHT22;53133;52.862;6.602;2023-05-24T03:53:11;9.80;99.90
66328;DHT22;53133;52.862;6.602;2023-05-24T03:55:36;9.90;99.90
66328;DHT22;53133;52.862;6.602;2023-05-24T03:58:02;9.90;99.90
66328;DHT22;53133;52.862;6.602;2023-05-24T04:00:27;9.90;99.90
66328;DHT22;53133;52.862;6.602;2023-05-24T04:02:53;9.90;99.90
66328;DHT22;53133;52.862;6.602;2023-05-24T04:05:20;9.90;99.90
66328;DHT22;53133;52.862;6.602;2023-05-24T04:07:46;9.90;99.90
66328;DHT22;53133;52.862;6.602;2023-05-24T04:10:11;9.90;99.90
66328;DHT22;53133;52.862;6.602;2023-05-24T04:12:37;9.90;99.90
66328;DHT22;53133;52.862;6.602;2023-05-24T04:15:05;9.90;99.90
66328;DHT22;53133;52.862;6.602;2023-05-24T04:17:31;9.90;99.90
66328;DHT22;53133;52.862;6.602;2023-05-24T04:19:59;9.90;99.90
66328;DHT22;53133;52.862;6.602;2023-05-24T04:22:25;10.00;99.90
66328;DHT22;53133;52.862;6.602;2023-05-24T04:24:51;10.00;99.90
66328;DHT22;53133;52.862;6.602;2023-05-24T04:27:16;10.00;99.90
66328;DHT22;53133;52.862;6.602;2023-05-24T04:29:44;10.00;99.90
66328;DHT22;53133;52.862;6.602;2023-05-24T04:32:14;10.00;99.90
66328;DHT22;53133;52.862;6.602;2023-05-24T04:34:40;10.00;99.90
66328;DHT22;53133;52.862;6.602;2023-05-24T04:37:08;10.00;99.90
66328;DHT22;53133;52.862;6.602;2023-05-24T04:39:34;10.00;99.90
66328;DHT22;53133;52.862;6.602;2023-05-24T04:41:59;10.00;99.90
66328;DHT22;53133;52.862;6.602;2023-05-24T04:44:25;10.00;99.90
66328;DHT22;53133;52.862;6.602;2023-05-24T04:46:51;10.00;99.90
66328;DHT22;53133;52.862;6.602;2023-05-24T04:49:17;10.00;99.90
66328;DHT22;53133;52.862;6.602;2023-05-24T04:51:44;10.00;99.90
66328;DHT22;53133;52.862;6.602;2023-05-24T04:54:09;10.10;99.90
66328;DHT22;53133;52.862;6.602;2023-05-24T04:56:38;10.00;99.90
66328;DHT22;53133;52.862;6.602;2023-05-24T04:59:06;10.10;99.90
66328;DHT22;53133;52.862;6.602;2023-05-24T05:01:33;10.10;99.90
66328;DHT22;53133;52.862;6.602;2023-05-24T05:03:59;10.10;99.90
66328;DHT22;53133;52.862;6.602;2023-05-24T05:06:25;10.10;99.90
66328;DHT22;53133;52.862;6.602;2023-05-24T05:08:56;10.20;99.90
66328;DHT22;53133;52.862;6.602;2023-05-24T05:11:22;10.20;99.90
66328;DHT22;53133;52.862;6.602;2023-05-24T05:13:47;10.20;99.90
66328;DHT22;53133;52.862;6.602;2023-05-24T05:16:13;10.30;99.90
66328;DHT22;53133;52.862;6.602;2023-05-24T05:18:39;10.40;99.90
66328;DHT22;53133;52.862;6.602;2023-05-24T05:21:05;10.40;99.90
66328;DHT22;53133;52.862;6.602;2023-05-24T05:23:31;10.40;99.90
66328;DHT22;53133;52.862;6.602;2023-05-24T05:25:57;10.50;99.90
66328;DHT22;53133;52.862;6.602;2023-05-24T05:28:22;10.50;99.90
66328;DHT22;53133;52.862;6.602;2023-05-24T05:30:48;10.60;99.90
66328;DHT22;53133;52.862;6.602;2023-05-24T05:33:14;10.60;99.90
66328;DHT22;53133;52.862;6.602;2023-05-24T05:35:39;10.60;99.90
66328;DHT22;53133;52.862;6.602;2023-05-24T05:38:05;10.60;99.90
66328;DHT22;53133;52.862;6.602;2023-05-24T05:40:31;10.60;99.90
66328;DHT22;53133;52.862;6.602;2023-05-24T05:42:56;10.60;99.90
66328;DHT22;53133;52.862;6.602;2023-05-24T05:45:23;10.60;99.90
66328;DHT22;53133;52.862;6.602;2023-05-24T05:47:48;10.60;99.90
66328;DHT22;53133;52.862;6.602;2023-05-24T05:50:14;10.60;99.90
66328;DHT22;53133;52.862;6.602;2023-05-24T05:52:40;10.70;99.90
66328;DHT22;53133;52.862;6.602;2023-05-24T05:55:08;10.70;99.90
66328;DHT22;53133;52.862;6.602;2023-05-24T05:57:35;10.80;99.90
66328;DHT22;53133;52.862;6.602;2023-05-24T06:00:01;10.80;99.90
66328;DHT22;53133;52.862;6.602;2023-05-24T06:02:26;10.90;99.90
66328;DHT22;53133;52.862;6.602;2023-05-24T06:04:52;11.00;99.90
66328;DHT22;53133;52.862;6.602;2023-05-24T06:07:17;11.00;99.90
66328;DHT22;53133;52.862;6.602;2023-05-24T06:09:43;11.10;99.90
66328;DHT22;53133;52.862;6.602;2023-05-24T06:12:09;11.10;99.90
66328;DHT22;53133;52.862;6.602;2023-05-24T06:14:34;11.20;99.90
66328;DHT22;53133;52.862;6.602;2023-05-24T06:17:03;11.30;99.90
66328;DHT22;53133;52.862;6.602;2023-05-24T06:19:30;11.30;99.90
66328;DHT22;53133;52.862;6.602;2023-05-24T06:21:57;11.30;99.90
66328;DHT22;53133;52.862;6.602;2023-05-24T06:24:22;11.40;99.90
66328;DHT22;53133;52.862;6.602;2023-05-24T06:26:51;11.50;99.90
66328;DHT22;53133;52.862;6.602;2023-05-24T06:29:18;11.50;99.90
66328;DHT22;53133;52.862;6.602;2023-05-24T06:31:49;11.60;99.90
66328;DHT22;53133;52.862;6.602;2023-05-24T06:34:16;11.60;99.90
66328;DHT22;53133;52.862;6.602;2023-05-24T06:36:44;11.60;99.90
66328;DHT22;53133;52.862;6.602;2023-05-24T06:39:13;11.60;99.90
66328;DHT22;53133;52.862;6.602;2023-05-24T06:41:39;11.70;99.90
66328;DHT22;53133;52.862;6.602;2023-05-24T06:44:05;11.70;99.90
66328;DHT22;53133;52.862;6.602;2023-05-24T06:46:31;11.60;99.90
66328;DHT22;53133;52.862;6.602;2023-05-24T06:48:56;11.60;99.90
66328;DHT22;53133;52.862;6.602;2023-05-24T06:51:22;11.60;99.90
66328;DHT22;53133;52.862;6.602;2023-05-24T06:53:48;11.60;99.90
66328;DHT22;53133;52.862;6.602;2023-05-24T06:56:14;11.60;99.90
66328;DHT22;53133;52.862;6.602;2023-05-24T06:58:39;11.60;99.90
66328;DHT22;53133;52.862;6.602;2023-05-24T07:01:06;11.70;99.90
66328;DHT22;53133;52.862;6.602;2023-05-24T07:03:31;11.70;99.90
66328;DHT22;53133;52.862;6.602;2023-05-24T07:05:57;11.70;99.90
66328;DHT22;53133;52.862;6.602;2023-05-24T07:08:29;11.80;99.90
66328;DHT22;53133;52.862;6.602;2023-05-24T07:10:55;11.80;99.90
66328;DHT22;53133;52.862;6.602;2023-05-24T07:13:21;11.80;99.90
66328;DHT22;53133;52.862;6.602;2023-05-24T07:15:47;11.80;99.90
66328;DHT22;53133;52.862;6.602;2023-05-24T07:18:13;11.80;99.90
66328;DHT22;53133;52.862;6.602;2023-05-24T07:20:39;11.80;99.90
66328;DHT22;53133;52.862;6.602;2023-05-24T07:23:11;11.80;99.90
66328;DHT22;53133;52.862;6.602;2023-05-24T07:25:36;11.90;99.90
66328;DHT22;53133;52.862;6.602;2023-05-24T07:28:02;11.90;99.90
66328;DHT22;53133;52.862;6.602;2023-05-24T07:30:27;12.10;99.90
66328;DHT22;53133;52.862;6.602;2023-05-24T07:32:53;12.20;99.90
66328;DHT22;53133;52.862;6.602;2023-05-24T07:35:19;12.30;99.90
66328;DHT22;53133;52.862;6.602;2023-05-24T07:37:44;12.40;99.90
66328;DHT22;53133;52.862;6.602;2023-05-24T07:40:11;12.50;99.90
66328;DHT22;53133;52.862;6.602;2023-05-24T07:42:40;12.60;99.90
66328;DHT22;53133;52.862;6.602;2023-05-24T07:45:06;12.70;99.90
66328;DHT22;53133;52.862;6.602;2023-05-24T07:47:33;12.80;99.90
66328;DHT22;53133;52.862;6.602;2023-05-24T07:49:59;12.80;99.90
66328;DHT22;53133;52.862;6.602;2023-05-24T07:52:25;12.70;99.90
66328;DHT22;53133;52.862;6.602;2023-05-24T07:54:50;12.70;99.90
66328;DHT22;53133;52.862;6.602;2023-05-24T07:57:17;12.60;99.90
66328;DHT22;53133;52.862;6.602;2023-05-24T07:59:44;12.70;99.90
66328;DHT22;53133;52.862;6.602;2023-05-24T08:02:10;12.60;99.90
66328;DHT22;53133;52.862;6.602;2023-05-24T08:04:38;12.50;99.90
66328;DHT22;53133;52.862;6.602;2023-05-24T08:07:10;12.50;99.90
66328;DHT22;53133;52.862;6.602;2023-05-24T08:09:36;12.40;99.90
66328;DHT22;53133;52.862;6.602;2023-05-24T08:12:06;12.50;99.90
66328;DHT22;53133;52.862;6.602;2023-05-24T08:14:32;12.50;99.90
66328;DHT22;53133;52.862;6.602;2023-05-24T08:16:57;12.40;99.90
66328;DHT22;53133;52.862;6.602;2023-05-24T08:19:28;12.50;99.90
66328;DHT22;53133;52.862;6.602;2023-05-24T08:22:00;12.60;99.90
66328;DHT22;53133;52.862;6.602;2023-05-24T08:24:31;12.60;99.90
66328;DHT22;53133;52.862;6.602;2023-05-24T08:26:57;12.70;99.90
66328;DHT22;53133;52.862;6.602;2023-05-24T08:29:23;12.70;99.90
66328;DHT22;53133;52.862;6.602;2023-05-24T08:31:49;12.70;99.90
66328;DHT22;53133;52.862;6.602;2023-05-24T08:34:14;12.80;99.90
66328;DHT22;53133;52.862;6.602;2023-05-24T08:36:40;12.80;99.90
66328;DHT22;53133;52.862;6.602;2023-05-24T08:39:10;12.90;99.90
66328;DHT22;53133;52.862;6.602;2023-05-24T08:41:36;12.90;99.90
66328;DHT22;53133;52.862;6.602;2023-05-24T08:44:05;13.00;99.90
66328;DHT22;53133;52.862;6.602;2023-05-24T08:46:34;13.10;99.90
66328;DHT22;53133;52.862;6.602;2023-05-24T08:49:01;13.10;99.90
66328;DHT22;53133;52.862;6.602;2023-05-24T08:51:30;13.10;99.90
66328;DHT22;53133;52.862;6.602;2023-05-24T08:53:59;13.10;99.90
66328;DHT22;53133;52.862;6.602;2023-05-24T08:56:26;13.10;99.90
66328;DHT22;53133;52.862;6.602;2023-05-24T08:58:55;13.20;99.90
66328;DHT22;53133;52.862;6.602;2023-05-24T09:01:23;13.30;99.90
66328;DHT22;53133;52.862;6.602;2023-05-24T09:03:49;13.40;99.90
66328;DHT22;53133;52.862;6.602;2023-05-24T09:06:18;13.40;99.90
66328;DHT22;53133;52.862;6.602;2023-05-24T09:08:47;13.50;99.90
66328;DHT22;53133;52.862;6.602;2023-05-24T09:11:17;13.50;99.90
66328;DHT22;53133;52.862;6.602;2023-05-24T09:13:47;13.60;99.90
66328;DHT22;53133;52.862;6.602;2023-05-24T09:16:14;13.70;99.90
66328;DHT22;53133;52.862;6.602;2023-05-24T09:18:40;13.70;99.90
66328;DHT22;53133;52.862;6.602;2023-05-24T09:21:11;13.70;99.90
66328;DHT22;53133;52.862;6.602;2023-05-24T09:23:38;13.70;99.90
66328;DHT22;53133;52.862;6.602;2023-05-24T09:26:09;13.70;99.90
66328;DHT22;53133;52.862;6.602;2023-05-24T09:28:36;13.70;99.90
66328;DHT22;53133;52.862;6.602;2023-05-24T09:31:02;13.70;99.90
66328;DHT22;53133;52.862;6.602;2023-05-24T09:33:29;13.70;99.90
66328;DHT22;53133;52.862;6.602;2023-05-24T09:35:57;13.70;99.90
66328;DHT22;53133;52.862;6.602;2023-05-24T09:38:23;13.70;99.90
66328;DHT22;53133;52.862;6.602;2023-05-24T09:41:16;13.70;99.90
66328;DHT22;53133;52.862;6.602;2023-05-24T09:43:48;13.70;99.90
66328;DHT22;53133;52.862;6.602;2023-05-24T09:46:17;13.80;99.90
66328;DHT22;53133;52.862;6.602;2023-05-24T09:49:03;13.80;99.90
66328;DHT22;53133;52.862;6.602;2023-05-24T09:51:30;13.90;97.20
66328;DHT22;53133;52.862;6.602;2023-05-24T09:53:57;13.80;97.60
66328;DHT22;53133;52.862;6.602;2023-05-24T09:56:34;13.80;97.00
66328;DHT22;53133;52.862;6.602;2023-05-24T09:59:06;13.80;96.00
66328;DHT22;53133;52.862;6.602;2023-05-24T10:01:41;13.80;97.20
66328;DHT22;53133;52.862;6.602;2023-05-24T10:04:18;13.90;98.30
66328;DHT22;53133;52.862;6.602;2023-05-24T10:06:45;14.00;98.60
66328;DHT22;53133;52.862;6.602;2023-05-24T10:09:13;14.10;98.60
66328;DHT22;53133;52.862;6.602;2023-05-24T10:11:40;14.10;99.00
66328;DHT22;53133;52.862;6.602;2023-05-24T10:14:07;14.20;98.60
66328;DHT22;53133;52.862;6.602;2023-05-24T10:16:36;14.30;99.50
66328;DHT22;53133;52.862;6.602;2023-05-24T10:19:07;14.40;97.60
66328;DHT22;53133;52.862;6.602;2023-05-24T10:21:35;14.30;94.90
66328;DHT22;53133;52.862;6.602;2023-05-24T10:24:08;14.20;98.10
66328;DHT22;53133;52.862;6.602;2023-05-24T10:26:36;14.20;96.70
66328;DHT22;53133;52.862;6.602;2023-05-24T10:29:10;14.20;97.70
66328;DHT22;53133;52.862;6.602;2023-05-24T10:31:40;14.30;98.80
66328;DHT22;53133;52.862;6.602;2023-05-24T10:34:07;14.30;96.70
66328;DHT22;53133;52.862;6.602;2023-05-24T10:36:33;14.50;98.40
66328;DHT22;53133;52.862;6.602;2023-05-24T10:38:59;14.50;97.10
66328;DHT22;53133;52.862;6.602;2023-05-24T10:41:26;14.40;95.80
66328;DHT22;53133;52.862;6.602;2023-05-24T10:43:52;14.40;94.00
66328;DHT22;53133;52.862;6.602;2023-05-24T10:46:21;14.40;93.30
66328;DHT22;53133;52.862;6.602;2023-05-24T10:49:06;14.50;93.40
66328;DHT22;53133;52.862;6.602;2023-05-24T10:51:33;14.60;92.60
66328;DHT22;53133;52.862;6.602;2023-05-24T10:54:19;14.50;93.10
66328;DHT22;53133;52.862;6.602;2023-05-24T10:56:49;14.50;90.60
66328;DHT22;53133;52.862;6.602;2023-05-24T11:01:56;14.40;94.50
66328;DHT22;53133;52.862;6.602;2023-05-24T11:04:22;14.40;96.10
66328;DHT22;53133;52.862;6.602;2023-05-24T11:09:21;14.50;97.80
66328;DHT22;53133;52.862;6.602;2023-05-24T11:11:48;14.60;97.40
66328;DHT22;53133;52.862;6.602;2023-05-24T11:14:19;14.70;94.40
66328;DHT22;53133;52.862;6.602;2023-05-24T11:16:45;14.70;91.90
66328;DHT22;53133;52.862;6.602;2023-05-24T11:19:20;14.60;91.30
66328;DHT22;53133;52.862;6.602;2023-05-24T11:21:48;14.60;93.00
66328;DHT22;53133;52.862;6.602;2023-05-24T11:24:18;14.60;96.30
66328;DHT22;53133;52.862;6.602;2023-05-24T11:26:44;14.70;95.60
66328;DHT22;53133;52.862;6.602;2023-05-24T11:29:12;14.60;94.90
66328;DHT22;53133;52.862;6.602;2023-05-24T11:31:52;14.60;93.50
66328;DHT22;53133;52.862;6.602;2023-05-24T11:34:19;14.50;94.40
66328;DHT22;53133;52.862;6.602;2023-05-24T11:36:46;14.50;94.40
66328;DHT22;53133;52.862;6.602;2023-05-24T11:39:13;14.50;94.70
66328;DHT22;53133;52.862;6.602;2023-05-24T11:41:39;14.50;95.50
66328;DHT22;53133;52.862;6.602;2023-05-24T11:44:09;14.50;96.40
66328;DHT22;53133;52.862;6.602;2023-05-24T11:46:37;14.60;96.30
66328;DHT22;53133;52.862;6.602;2023-05-24T11:49:03;14.50;96.20
66328;DHT22;53133;52.862;6.602;2023-05-24T11:51:31;14.50;96.60
66328;DHT22;53133;52.862;6.602;2023-05-24T11:53:57;14.50;97.20
66328;DHT22;53133;52.862;6.602;2023-05-24T11:56:24;14.60;98.80
66328;DHT22;53133;52.862;6.602;2023-05-24T12:01:47;14.80;99.40
66328;DHT22;53133;52.862;6.602;2023-05-24T12:04:14;14.90;98.90
66328;DHT22;53133;52.862;6.602;2023-05-24T12:06:41;14.80;98.30
66328;DHT22;53133;52.862;6.602;2023-05-24T12:09:08;14.70;98.00
66328;DHT22;53133;52.862;6.602;2023-05-24T12:11:46;14.70;99.80
66328;DHT22;53133;52.862;6.602;2023-05-24T12:14:22;14.60;99.90
66328;DHT22;53133;52.862;6.602;2023-05-24T12:16:48;14.50;99.50
66328;DHT22;53133;52.862;6.602;2023-05-24T12:19:18;14.40;99.90
66328;DHT22;53133;52.862;6.602;2023-05-24T12:21:48;14.50;99.90
66328;DHT22;53133;52.862;6.602;2023-05-24T12:24:15;14.40;99.90
66328;DHT22;53133;52.862;6.602;2023-05-24T12:26:42;14.40;99.90
66328;DHT22;53133;52.862;6.602;2023-05-24T12:29:10;14.40;99.90
66328;DHT22;53133;52.862;6.602;2023-05-24T12:31:40;14.40;99.90
66328;DHT22;53133;52.862;6.602;2023-05-24T12:34:27;14.40;99.90
66328;DHT22;53133;52.862;6.602;2023-05-24T12:36:54;14.30;99.90
66328;DHT22;53133;52.862;6.602;2023-05-24T12:39:25;14.40;99.90
66328;DHT22;53133;52.862;6.602;2023-05-24T12:41:56;14.40;99.90
66328;DHT22;53133;52.862;6.602;2023-05-24T12:44:29;14.40;99.90
66328;DHT22;53133;52.862;6.602;2023-05-24T12:46:56;14.40;99.90
66328;DHT22;53133;52.862;6.602;2023-05-24T12:49:23;14.40;99.90
66328;DHT22;53133;52.862;6.602;2023-05-24T12:51:49;14.40;99.90
66328;DHT22;53133;52.862;6.602;2023-05-24T12:54:18;14.40;99.90
66328;DHT22;53133;52.862;6.602;2023-05-24T12:56:43;14.30;99.90
66328;DHT22;53133;52.862;6.602;2023-05-24T12:59:09;14.20;99.90
66328;DHT22;53133;52.862;6.602;2023-05-24T13:01:35;14.10;99.90
66328;DHT22;53133;52.862;6.602;2023-05-24T13:04:00;14.00;99.90
66328;DHT22;53133;52.862;6.602;2023-05-24T13:06:26;14.10;99.90
66328;DHT22;53133;52.862;6.602;2023-05-24T13:08:52;14.10;99.90
66328;DHT22;53133;52.862;6.602;2023-05-24T13:11:18;14.10;99.90
66328;DHT22;53133;52.862;6.602;2023-05-24T13:14:05;14.10;99.90
66328;DHT22;53133;52.862;6.602;2023-05-24T13:16:29;14.10;99.90
66328;DHT22;53133;52.862;6.602;2023-05-24T13:18:55;14.10;99.90
66328;DHT22;53133;52.862;6.602;2023-05-24T13:21:21;14.10;99.90
66328;DHT22;53133;52.862;6.602;2023-05-24T13:23:47;14.20;99.20
66328;DHT22;53133;52.862;6.602;2023-05-24T13:26:12;14.10;98.50
66328;DHT22;53133;52.862;6.602;2023-05-24T13:28:38;14.20;98.30
66328;DHT22;53133;52.862;6.602;2023-05-24T13:31:04;14.10;98.30
66328;DHT22;53133;52.862;6.602;2023-05-24T13:33:30;14.20;98.80
66328;DHT22;53133;52.862;6.602;2023-05-24T13:35:56;14.20;98.70
66328;DHT22;53133;52.862;6.602;2023-05-24T13:38:22;14.20;99.20
66328;DHT22;53133;52.862;6.602;2023-05-24T13:40:48;14.20;99.30
66328;DHT22;53133;52.862;6.602;2023-05-24T13:43:14;14.20;99.90
66328;DHT22;53133;52.862;6.602;2023-05-24T13:45:40;14.20;99.90
66328;DHT22;53133;52.862;6.602;2023-05-24T13:48:05;14.30;99.90
66328;DHT22;53133;52.862;6.602;2023-05-24T13:50:35;14.30;99.90
66328;DHT22;53133;52.862;6.602;2023-05-24T13:53:02;14.30;99.90
66328;DHT22;53133;52.862;6.602;2023-05-24T13:55:29;14.30;99.90
66328;DHT22;53133;52.862;6.602;2023-05-24T13:57:55;14.30;99.90
66328;DHT22;53133;52.862;6.602;2023-05-24T14:00:21;14.40;99.90
66328;DHT22;53133;52.862;6.602;2023-05-24T14:02:48;14.40;99.90
66328;DHT22;53133;52.862;6.602;2023-05-24T14:05:14;14.40;99.90
66328;DHT22;53133;52.862;6.602;2023-05-24T14:07:40;14.40;99.40
66328;DHT22;53133;52.862;6.602;2023-05-24T14:10:11;14.40;98.80
66328;DHT22;53133;52.862;6.602;2023-05-24T14:12:37;14.40;98.80
66328;DHT22;53133;52.862;6.602;2023-05-24T14:15:03;14.40;99.20
66328;DHT22;53133;52.862;6.602;2023-05-24T14:17:30;14.40;99.60
66328;DHT22;53133;52.862;6.602;2023-05-24T14:19:56;14.50;99.90
66328;DHT22;53133;52.862;6.602;2023-05-24T14:22:22;14.50;99.90
66328;DHT22;53133;52.862;6.602;2023-05-24T14:24:50;14.50;99.90
66328;DHT22;53133;52.862;6.602;2023-05-24T14:27:16;14.50;99.90
66328;DHT22;53133;52.862;6.602;2023-05-24T14:29:41;14.50;99.90
66328;DHT22;53133;52.862;6.602;2023-05-24T14:32:07;14.50;99.90
66328;DHT22;53133;52.862;6.602;2023-05-24T14:34:33;14.50;99.90
66328;DHT22;53133;52.862;6.602;2023-05-24T14:36:59;14.50;99.90
66328;DHT22;53133;52.862;6.602;2023-05-24T14:39:26;14.50;99.90
66328;DHT22;53133;52.862;6.602;2023-05-24T14:41:51;14.50;99.90
66328;DHT22;53133;52.862;6.602;2023-05-24T14:44:17;14.40;99.20
66328;DHT22;53133;52.862;6.602;2023-05-24T14:46:44;14.40;99.20
66328;DHT22;53133;52.862;6.602;2023-05-24T14:49:10;14.40;99.00
66328;DHT22;53133;52.862;6.602;2023-05-24T14:51:35;14.40;99.90
66328;DHT22;53133;52.862;6.602;2023-05-24T14:54:01;14.40;99.90
66328;DHT22;53133;52.862;6.602;2023-05-24T14:56:27;14.40;99.90
66328;DHT22;53133;52.862;6.602;2023-05-24T14:58:56;14.50;99.90
66328;DHT22;53133;52.862;6.602;2023-05-24T15:01:22;14.40;99.90
66328;DHT22;53133;52.862;6.602;2023-05-24T15:03:48;14.40;99.90
66328;DHT22;53133;52.862;6.602;2023-05-24T15:06:17;14.40;99.90
66328;DHT22;53133;52.862;6.602;2023-05-24T15:08:42;14.40;99.90
66328;DHT22;53133;52.862;6.602;2023-05-24T15:11:08;14.40;99.90
66328;DHT22;53133;52.862;6.602;2023-05-24T15:13:36;14.40;99.90
66328;DHT22;53133;52.862;6.602;2023-05-24T15:16:05;14.40;99.90
66328;DHT22;53133;52.862;6.602;2023-05-24T15:18:31;14.40;99.90
66328;DHT22;53133;52.862;6.602;2023-05-24T15:20:57;14.40;99.90
66328;DHT22;53133;52.862;6.602;2023-05-24T15:23:23;14.50;99.90
66328;DHT22;53133;52.862;6.602;2023-05-24T15:25:49;14.50;99.90
66328;DHT22;53133;52.862;6.602;2023-05-24T15:28:15;14.50;99.90
66328;DHT22;53133;52.862;6.602;2023-05-24T15:30:43;14.60;99.90
66328;DHT22;53133;52.862;6.602;2023-05-24T15:33:09;14.60;99.90
66328;DHT22;53133;52.862;6.602;2023-05-24T15:35:35;14.60;99.90
66328;DHT22;53133;52.862;6.602;2023-05-24T15:38:04;14.60;99.90
66328;DHT22;53133;52.862;6.602;2023-05-24T15:40:32;14.60;99.90
66328;DHT22;53133;52.862;6.602;2023-05-24T15:42:58;14.60;99.90
66328;DHT22;53133;52.862;6.602;2023-05-24T15:45:23;14.70;99.90
66328;DHT22;53133;52.862;6.602;2023-05-24T15:47:49;14.70;99.90
66328;DHT22;53133;52.862;6.602;2023-05-24T15:50:15;14.70;99.90
66328;DHT22;53133;52.862;6.602;2023-05-24T15:52:40;14.70;98.30
66328;DHT22;53133;52.862;6.602;2023-05-24T15:55:09;14.60;98.20
66328;DHT22;53133;52.862;6.602;2023-05-24T15:57:35;14.60;98.40
66328;DHT22;53133;52.862;6.602;2023-05-24T16:00:03;14.70;98.00
66328;DHT22;53133;52.862;6.602;2023-05-24T16:02:29;14.70;97.90
66328;DHT22;53133;52.862;6.602;2023-05-24T16:04:55;14.70;97.20